Time;durP1;ratioP1;P1;durP2;ratioP2;P2;SDS_P1;SDS_P2;PMS_P1;PMS_P2;Temp;Humidity;BMP_temperature;BMP_pressure;BME280_temperature;BME280_humidity;BME280_pressure;Samples;Min_cycle;Max_cycle;Signal;HPM_P1;HPM_P2
2021/09/30 00:01:16;;;;;;;2.90;0.90;;;;;;;8.32;67.17;101395.75;4974726;28;20572;-75
2021/09/30 00:03:42;;;;;;;2.13;0.47;;;;;;;8.38;67.86;101398.41;4940288;29;20055;-73
2021/09/30 00:06:08;;;;;;;0.82;0.30;;;;;;;8.40;68.04;101398.19;4950978;28;20034;-75
2021/09/30 00:08:33;;;;;;;1.63;0.77;;;;;;;8.32;67.80;101387.56;4956999;28;20439;-74
2021/09/30 00:11:13;;;;;;;0.95;0.40;;;;;;;8.34;68.22;101399.09;4971459;28;20027;-74
2021/09/30 00:14:00;;;;;;;0.80;0.50;;;;;;;8.28;68.18;101392.66;4946207;28;20039;-74
2021/09/30 00:17:00;;;;;;;2.67;0.77;;;;;;;8.14;67.86;101383.78;4969015;28;20057;-74
2021/09/30 00:34:23;;;;;;;1.95;0.40;;;;;;;8.11;69.81;101389.69;4974735;28;20042;-76
2021/09/30 00:42:21;;;;;;;2.97;0.65;;;;;;;8.25;69.33;101395.84;4973513;28;20031;-77
2021/09/30 00:48:00;;;;;;;;;;;;;;;;;;;;;
2021/09/30 02:18:32;;;;;;;0.80;0.40;;;;;;;10.31;65.60;101317.19;4972306;28;20057;-74
2021/09/30 03:00:18;;;;;;;0.60;0.40;;;;;;;10.52;65.16;101273.88;4972888;28;20050;-74
2021/09/30 03:02:48;;;;;;;0.30;0.20;;;;;;;10.57;65.03;101279.44;4969454;28;20048;-74
2021/09/30 03:05:21;;;;;;;0.30;0.30;;;;;;;10.57;65.07;101279.44;4963946;28;20074;-75
2021/09/30 03:08:05;;;;;;;0.08;0.08;;;;;;;10.61;65.25;101271.56;4953920;28;20453;-76
2021/09/30 03:10:48;;;;;;;0.15;0.10;;;;;;;10.59;65.15;101260.88;4956673;28;20035;-76
2021/09/30 03:13:46;;;;;;;1.65;0.10;;;;;;;10.65;65.14;101273.56;4967672;28;20054;-76
2021/09/30 03:19:50;;;;;;;2.67;0.45;;;;;;;10.64;64.74;101261.00;4972853;28;20040;-74
2021/09/30 03:27:38;;;;;;;0.32;0.20;;;;;;;10.64;65.27;101277.41;4914621;28;20405;-74
2021/09/30 03:30:04;;;;;;;0.35;0.20;;;;;;;10.66;64.93;101271.69;4970149;28;20041;-74
2021/09/30 03:32:29;;;;;;;0.88;0.35;;;;;;;10.65;64.93;101257.16;4973506;28;20034;-76
2021/09/30 03:35:07;;;;;;;0.52;0.32;;;;;;;10.65;65.24;101243.47;4972767;28;20058;-74
2021/09/30 03:37:32;;;;;;;0.20;0.20;;;;;;;10.71;64.87;101235.38;4952334;28;20023;-75
2021/09/30 03:40:16;;;;;;;0.90;0.35;;;;;;;10.70;65.25;101239.19;4966773;28;20054;-74
2021/09/30 03:42:44;;;;;;;0.65;0.30;;;;;;;10.73;65.06;101235.94;4966493;28;20086;-74
2021/09/30 03:45:10;;;;;;;0.30;0.20;;;;;;;10.65;65.39;101227.06;4974868;28;20118;-75
2021/09/30 03:47:36;;;;;;;0.38;0.10;;;;;;;10.67;65.26;101228.72;4973562;28;20071;-75
2021/09/30 03:50:03;;;;;;;0.52;0.30;;;;;;;10.70;65.20;101218.09;4970507;28;20149;-75
2021/09/30 03:55:34;;;;;;;0.65;0.20;;;;;;;10.75;65.36;101195.50;4971074;28;20043;-75
2021/09/30 03:59:18;;;;;;;0.28;0.10;;;;;;;10.82;65.08;101199.72;4980282;28;20023;-75
2021/09/30 04:01:48;;;;;;;0.40;0.20;;;;;;;10.68;65.29;101192.91;4943693;28;20117;-74
2021/09/30 04:14:04;;;;;;;1.08;0.30;;;;;;;10.60;65.87;101169.56;4968474;28;20536;-73
2021/09/30 04:19:44;;;;;;;;;;;;;;;;;;;;;
2021/09/30 04:22:12;;;;;;;0.40;0.10;;;;;;;10.65;66.21;101155.94;4974130;28;20065;-74
2021/09/30 04:24:40;;;;;;;0.43;0.25;;;;;;;10.67;66.31;101163.91;4973820;28;20110;-75
2021/09/30 04:27:15;;;;;;;1.65;0.20;;;;;;;10.72;66.44;101160.41;4986627;28;20088;-78
2021/09/30 04:29:48;;;;;;;1.00;0.52;;;;;;;10.75;66.11;101157.22;4974453;28;20469;-78
2021/09/30 04:32:21;;;;;;;0.60;0.28;;;;;;;10.84;66.15;101174.84;4987296;28;20041;-78
2021/09/30 04:34:56;;;;;;;0.47;0.22;;;;;;;10.86;66.42;101183.63;4978975;28;20157;-77
2021/09/30 04:37:23;;;;;;;;;;;;;;;10.92;65.90;101173.59;4969941;28;20503;-77
2021/09/30 04:40:10;;;;;;;3.45;0.30;;;;;;;10.77;66.47;101149.56;4976252;28;19918;-77
2021/09/30 04:42:35;;;;;;;1.02;0.30;;;;;;;10.87;66.54;101157.94;4975881;28;20101;-76
2021/09/30 04:45:01;;;;;;;0.75;0.30;;;;;;;10.90;66.23;101162.91;4975779;28;20031;-76
2021/09/30 04:47:29;;;;;;;0.90;0.35;;;;;;;10.92;66.61;101143.50;4975566;28;20126;-76
2021/09/30 04:49:57;;;;;;;1.77;0.38;;;;;;;10.93;66.66;101148.72;4975658;28;20031;-76
2021/09/30 04:52:34;;;;;;;0.40;0.30;;;;;;;10.98;66.96;101150.69;4975830;28;20030;-75
2021/09/30 04:54:59;;;;;;;0.98;0.63;;;;;;;10.99;66.74;101153.22;4968159;28;20095;-77
2021/09/30 04:57:25;;;;;;;0.98;0.63;;;;;;;10.94;67.33;101152.31;4973437;28;20047;-77
2021/09/30 05:00:08;;;;;;;7.63;0.65;;;;;;;11.03;67.35;101155.44;4976740;28;20022;-78
2021/09/30 05:02:46;;;;;;;2.65;0.60;;;;;;;10.90;67.80;101137.47;4973728;28;20042;-77
2021/09/30 05:05:13;;;;;;;6.07;0.73;;;;;;;11.01;66.95;101147.47;4974028;28;20050;-76
2021/09/30 05:07:39;;;;;;;4.32;0.45;;;;;;;11.03;67.18;101134.38;4955476;28;20068;-76
2021/09/30 05:10:06;;;;;;;1.75;0.20;;;;;;;11.12;67.16;101148.44;4975230;28;20038;-75
2021/09/30 05:12:34;;;;;;;1.20;0.50;;;;;;;11.10;66.84;101145.16;4981366;28;20101;-76
2021/09/30 05:15:00;;;;;;;2.60;0.30;;;;;;;11.11;67.26;101135.84;4975926;28;20082;-75
2021/09/30 05:17:25;;;;;;;1.30;0.35;;;;;;;11.16;67.38;101138.66;4971199;28;20458;-75
2021/09/30 05:19:50;;;;;;;2.25;0.40;;;;;;;11.24;67.55;101146.41;4969314;28;20561;-75
2021/09/30 05:23:06;;;;;;;1.70;0.32;;;;;;;11.29;67.33;101143.75;4979060;28;20055;-74
2021/09/30 05:25:51;;;;;;;0.55;0.30;;;;;;;11.25;67.37;101134.41;4981383;28;20042;-73
2021/09/30 05:28:20;;;;;;;1.30;0.20;;;;;;;11.28;67.29;101139.34;4965413;28;20126;-74
2021/09/30 05:30:45;;;;;;;0.73;0.22;;;;;;;11.33;67.25;101139.44;4982310;28;20039;-75
2021/09/30 05:33:13;;;;;;;0.73;0.35;;;;;;;11.43;67.37;101137.91;4961156;28;20038;-73
2021/09/30 05:35:39;;;;;;;0.57;0.28;;;;;;;11.49;67.41;101134.16;4972151;28;20034;-75
2021/09/30 05:38:14;;;;;;;0.57;0.38;;;;;;;11.47;67.05;101119.88;4955707;28;20034;-74
2021/09/30 05:40:47;;;;;;;4.10;0.30;;;;;;;11.57;66.97;101128.22;4962334;28;20495;-73
2021/09/30 05:43:20;;;;;;;1.42;0.60;;;;;;;11.59;67.13;101119.75;4959126;28;20050;-73
2021/09/30 05:45:46;;;;;;;4.22;0.60;;;;;;;11.62;67.47;101111.88;4978150;28;20019;-73
2021/09/30 05:48:12;;;;;;;0.60;0.38;;;;;;;11.66;67.51;101104.75;4964160;28;20031;-75
2021/09/30 05:50:39;;;;;;;1.63;0.43;;;;;;;11.64;67.89;101104.22;4975662;28;20602;-75
2021/09/30 05:53:10;;;;;;;3.45;0.40;;;;;;;11.64;68.20;101095.19;4979245;28;20043;-74
2021/09/30 05:55:35;;;;;;;3.20;0.50;;;;;;;11.67;68.62;101095.47;4970783;28;20135;-75
2021/09/30 05:58:03;;;;;;;3.78;0.65;;;;;;;11.74;68.58;101105.41;4962237;28;20086;-75
2021/09/30 06:00:31;;;;;;;4.90;0.82;;;;;;;11.69;68.87;101098.78;4968654;28;20037;-74
2021/09/30 06:16:19;;;;;;;0.55;0.50;;;;;;;11.91;69.93;101088.88;4972058;28;20373;-74
2021/09/30 06:18:45;;;;;;;5.72;0.52;;;;;;;11.94;69.50;101089.19;4984919;28;20030;-72
2021/09/30 06:21:12;;;;;;;3.40;0.57;;;;;;;12.00;69.33;101084.59;4976611;28;20030;-73
2021/09/30 06:23:38;;;;;;;5.25;0.98;;;;;;;12.07;69.07;101087.13;4964093;28;20053;-75
2021/09/30 06:26:03;;;;;;;2.53;0.47;;;;;;;12.15;69.11;101083.91;4972930;28;20042;-72
2021/09/30 06:28:28;;;;;;;2.47;0.63;;;;;;;12.16;68.81;101096.53;4965904;28;20054;-73
2021/09/30 06:30:54;;;;;;;1.38;0.40;;;;;;;12.21;68.74;101093.84;4967990;28;20480;-73
2021/09/30 06:33:49;;;;;;;3.55;0.85;;;;;;;12.28;68.77;101088.97;4970974;28;20046;-74
2021/09/30 06:36:36;;;;;;;1.75;0.45;;;;;;;12.31;68.94;101085.72;4960904;28;20374;-73
2021/09/30 06:39:02;;;;;;;2.25;0.30;;;;;;;12.29;68.69;101071.41;4966938;28;20046;-72
2021/09/30 06:41:30;;;;;;;2.90;1.10;;;;;;;12.36;68.72;101080.25;4951753;28;20042;-74
2021/09/30 06:43:56;;;;;;;1.92;0.60;;;;;;;12.36;68.18;101074.75;4969144;28;20035;-75
2021/09/30 06:46:23;;;;;;;3.28;0.80;;;;;;;12.38;68.35;101061.63;4969018;28;20137;-73
2021/09/30 06:48:49;;;;;;;3.80;0.60;;;;;;;12.48;67.98;101071.03;4965545;28;20081;-75
2021/09/30 06:51:15;;;;;;;3.20;0.60;;;;;;;12.44;68.27;101047.94;4970229;28;20046;-74
2021/09/30 06:53:40;;;;;;;3.75;1.83;;;;;;;12.57;68.42;101064.78;4966212;28;20054;-74
2021/09/30 06:56:08;;;;;;;1.90;0.90;;;;;;;12.57;68.51;101048.31;4974520;28;20035;-73
2021/09/30 06:58:44;;;;;;;1.50;0.60;;;;;;;12.63;68.32;101040.97;4972484;28;20091;-73
2021/09/30 07:01:09;;;;;;;;;;;;;;;12.73;67.79;101029.19;4967208;28;20062;-73
2021/09/30 07:03:35;;;;;;;2.55;0.60;;;;;;;12.69;68.40;101033.59;4972866;28;19964;-75
2021/09/30 07:06:02;;;;;;;4.35;0.47;;;;;;;12.70;68.27;101035.22;4968839;28;20038;-73
2021/09/30 07:08:53;;;;;;;7.75;0.80;;;;;;;12.66;68.18;101032.19;4967092;28;20023;-73
2021/09/30 07:11:18;;;;;;;4.38;0.70;;;;;;;12.74;68.71;101039.91;4967092;28;20022;-73
2021/09/30 07:13:44;;;;;;;2.85;0.70;;;;;;;12.83;68.44;101033.94;4973487;28;20097;-73
2021/09/30 07:16:10;;;;;;;5.38;0.88;;;;;;;12.96;68.59;101041.69;4928088;28;20031;-73
2021/09/30 07:18:35;;;;;;;4.55;0.50;;;;;;;13.06;67.90;101029.94;4967007;28;20039;-75
2021/09/30 07:21:20;;;;;;;0.88;0.50;;;;;;;13.14;67.90;101023.94;4969469;28;20039;-74
2021/09/30 07:23:45;;;;;;;1.38;0.60;;;;;;;13.15;68.22;101024.75;4959731;28;20668;-72
2021/09/30 07:26:11;;;;;;;4.20;0.82;;;;;;;13.20;68.28;101024.75;4941960;28;20047;-70
2021/09/30 07:28:37;;;;;;;4.35;1.00;;;;;;;13.25;67.87;101024.78;4965073;28;20031;-71
2021/09/30 07:31:04;;;;;;;7.50;0.70;;;;;;;13.40;67.42;101032.28;4964184;28;20042;-71
2021/09/30 07:33:30;;;;;;;6.03;1.05;;;;;;;13.43;67.87;101027.06;4963804;28;20027;-71
2021/09/30 07:35:55;;;;;;;10.00;1.15;;;;;;;13.47;67.71;101027.34;4961514;28;20031;-71
2021/09/30 07:38:44;;;;;;;2.67;0.60;;;;;;;13.54;67.92;101027.91;4933787;28;20325;-72
2021/09/30 07:41:16;;;;;;;1.25;0.65;;;;;;;13.62;67.35;101029.31;4950825;28;20374;-71
2021/09/30 07:43:41;;;;;;;5.80;0.88;;;;;;;13.69;66.98;101027.13;4963308;28;22214;-71
2021/09/30 07:46:14;;;;;;;6.13;0.73;;;;;;;13.74;67.52;101015.28;4968104;28;20153;-72
2021/09/30 07:48:42;;;;;;;4.78;0.85;;;;;;;13.78;66.99;101017.25;4954898;28;20031;-71
2021/09/30 07:51:07;;;;;;;2.13;1.05;;;;;;;13.82;67.05;101005.72;4965340;28;20085;-72
2021/09/30 07:53:36;;;;;;;4.43;0.85;;;;;;;13.92;67.21;101005.72;4981983;28;20758;-71
2021/09/30 07:56:01;;;;;;;6.90;0.95;;;;;;;13.97;66.94;100997.44;4969253;28;20030;-71
2021/09/30 07:58:27;;;;;;;3.05;0.82;;;;;;;13.98;66.81;101007.34;4970608;28;20473;-72
2021/09/30 08:01:00;;;;;;;1.73;0.68;;;;;;;14.05;67.24;100994.16;4970589;28;20019;-73
2021/09/30 08:03:27;;;;;;;5.97;2.22;;;;;;;13.97;67.80;100986.44;4971033;28;20114;-71
2021/09/30 08:05:58;;;;;;;3.30;1.08;;;;;;;13.87;68.43;100991.94;4948673;28;20053;-72
2021/09/30 08:08:23;;;;;;;6.45;0.88;;;;;;;13.83;68.58;100990.84;4975549;28;20106;-73
2021/09/30 08:10:56;;;;;;;10.65;1.25;;;;;;;13.86;68.61;100984.81;4972384;28;20521;-73
2021/09/30 08:13:25;;;;;;;2.88;1.40;;;;;;;13.85;69.11;100972.97;4988763;28;20026;-71
2021/09/30 08:15:50;;;;;;;2.63;0.93;;;;;;;13.90;68.64;100985.91;4969280;28;20073;-73
2021/09/30 08:18:16;;;;;;;2.13;0.65;;;;;;;14.00;69.03;100974.91;4969280;28;20484;-72
2021/09/30 08:20:43;;;;;;;2.70;0.70;;;;;;;14.12;68.68;100978.22;4975794;28;20078;-74
2021/09/30 08:23:26;;;;;;;;;;;;;;;;;;;;;
2021/09/30 08:25:57;;;;;;;3.65;0.90;;;;;;;14.34;68.60;100968.84;4976260;28;20030;-73
2021/09/30 08:28:22;;;;;;;5.40;1.23;;;;;;;14.53;67.84;100970.97;4976427;28;20019;-73
2021/09/30 08:30:55;;;;;;;1.02;0.63;;;;;;;14.59;67.87;100970.69;4977327;28;20122;-73
2021/09/30 08:33:24;;;;;;;4.88;0.90;;;;;;;14.67;67.69;100988.59;4972019;28;20129;-73
2021/09/30 08:35:50;;;;;;;4.90;1.15;;;;;;;14.66;67.58;100982.25;4974886;28;20023;-72
2021/09/30 08:38:16;;;;;;;7.90;2.05;;;;;;;14.64;68.55;100967.13;4975058;28;20030;-73
2021/09/30 08:40:43;;;;;;;10.68;2.22;;;;;;;14.71;68.22;100969.59;4961512;28;20091;-73
2021/09/30 08:43:08;;;;;;;7.70;0.90;;;;;;;14.72;68.08;100963.81;4973582;28;20042;-74
2021/09/30 08:45:49;;;;;;;7.15;0.95;;;;;;;14.59;69.01;100970.69;4972198;28;20405;-72
2021/09/30 08:48:15;;;;;;;11.55;1.15;;;;;;;14.62;69.11;100963.84;4971069;28;20078;-72
2021/09/30 08:50:41;;;;;;;2.50;0.73;;;;;;;14.77;69.23;100966.53;4974132;28;20113;-73
2021/09/30 08:53:22;;;;;;;;;;;;;;;;;;;;;
2021/09/30 08:55:55;;;;;;;6.20;1.10;;;;;;;14.88;68.90;100941.69;4968695;28;20019;-72
2021/09/30 08:58:20;;;;;;;2.90;0.60;;;;;;;14.94;68.45;100951.63;4971525;28;20037;-74
2021/09/30 09:00:52;;;;;;;6.05;0.93;;;;;;;14.86;69.63;100938.41;4967600;28;20030;-72
2021/09/30 09:03:33;;;;;;;4.40;1.05;;;;;;;14.89;69.54;100941.41;4970756;28;20046;-72
2021/09/30 09:06:01;;;;;;;13.30;1.13;;;;;;;14.80;69.32;100943.94;4971717;28;20088;-74
2021/09/30 09:08:30;;;;;;;4.13;1.85;;;;;;;14.78;69.71;100942.59;4965078;28;20075;-72
2021/09/30 09:11:00;;;;;;;3.90;0.98;;;;;;;14.80;69.54;100937.63;4971866;28;20029;-73
2021/09/30 09:13:36;;;;;;;7.25;0.93;;;;;;;14.84;69.44;100931.25;4975294;28;20034;-72
2021/09/30 09:16:03;;;;;;;5.68;1.05;;;;;;;14.80;69.30;100910.91;4952432;28;20130;-72
2021/09/30 09:18:44;;;;;;;8.00;1.58;;;;;;;14.83;69.42;100913.09;4974624;28;20022;-73
2021/09/30 09:21:20;;;;;;;4.00;1.38;;;;;;;14.91;69.58;100914.44;4955332;28;20037;-72
2021/09/30 09:23:48;;;;;;;16.60;2.10;;;;;;;15.09;68.84;100935.00;4973034;28;20054;-72
2021/09/30 09:26:17;;;;;;;10.90;2.38;;;;;;;15.20;68.11;100908.22;4973593;28;20031;-72
2021/09/30 09:29:13;;;;;;;11.65;1.70;;;;;;;15.47;67.51;100912.44;4987523;28;20495;-72
2021/09/30 09:31:44;;;;;;;3.40;1.38;;;;;;;15.49;67.10;100899.19;4970544;28;20022;-70
2021/09/30 09:34:17;;;;;;;6.75;1.60;;;;;;;15.63;67.24;100899.34;4972334;28;20027;-71
2021/09/30 09:36:43;;;;;;;11.52;1.38;;;;;;;15.78;66.80;100888.22;4971220;28;20023;-72
2021/09/30 09:39:15;;;;;;;7.95;1.85;;;;;;;15.83;66.83;100899.22;4973364;28;20030;-73
2021/09/30 09:41:41;;;;;;;6.53;1.50;;;;;;;15.84;66.68;100911.91;4968291;28;20026;-72
2021/09/30 09:44:07;;;;;;;13.10;1.50;;;;;;;15.84;66.73;100914.66;4973874;28;20035;-71
2021/09/30 09:46:35;;;;;;;11.13;1.33;;;;;;;15.82;66.61;100883.78;4971498;28;20105;-70
2021/09/30 09:49:14;;;;;;;5.80;2.15;;;;;;;15.82;66.82;100881.00;4973408;28;20130;-71
2021/09/30 09:51:49;;;;;;;8.45;1.55;;;;;;;15.78;67.18;100898.41;4968322;28;20115;-72
2021/09/30 09:54:21;;;;;;;12.80;2.17;;;;;;;15.81;66.78;100884.91;4974676;28;20622;-71
2021/09/30 09:56:48;;;;;;;14.68;1.70;;;;;;;15.85;67.14;100890.66;4977130;28;20034;-72
2021/09/30 09:59:27;;;;;;;3.33;0.95;;;;;;;15.87;66.51;100883.72;4964927;28;20031;-72
2021/09/30 10:01:55;;;;;;;14.00;1.90;;;;;;;15.96;66.56;100864.63;4984884;28;20468;-72
2021/09/30 10:04:20;;;;;;;5.13;1.50;;;;;;;16.01;66.20;100888.56;4969705;28;20023;-72
2021/09/30 10:06:46;;;;;;;6.00;0.98;;;;;;;15.93;66.17;100850.56;4968391;28;20433;-73
2021/09/30 10:09:13;;;;;;;13.40;0.90;;;;;;;15.95;66.41;100874.00;4953692;29;20122;-73
2021/09/30 10:11:39;;;;;;;11.48;1.88;;;;;;;15.99;66.31;100857.66;4955876;28;20515;-73
2021/09/30 10:14:18;;;;;;;7.07;1.30;;;;;;;16.03;66.56;100850.47;4972515;28;20196;-72
2021/09/30 10:16:48;;;;;;;10.75;1.67;;;;;;;16.09;66.48;100846.56;4978720;28;20027;-72
2021/09/30 10:19:15;;;;;;;4.93;0.77;;;;;;;16.26;65.84;100856.28;4977086;28;20036;-71
2021/09/30 10:21:41;;;;;;;4.22;0.90;;;;;;;16.41;65.79;100853.34;4973971;28;20037;-72
2021/09/30 10:24:12;;;;;;;6.60;1.70;;;;;;;16.45;64.90;100835.06;4976728;28;20051;-71
2021/09/30 10:26:50;;;;;;;9.18;1.35;;;;;;;16.36;64.99;100834.91;4968945;28;20172;-72
2021/09/30 10:29:35;;;;;;;10.93;1.63;;;;;;;16.19;65.39;100831.81;4967372;28;20055;-73
2021/09/30 10:32:01;;;;;;;11.95;3.08;;;;;;;16.07;66.34;100840.50;4977408;28;20022;-72
2021/09/30 10:34:32;;;;;;;7.43;1.45;;;;;;;15.96;67.35;100836.19;4963756;28;20129;-72
2021/09/30 10:37:29;;;;;;;5.05;1.38;;;;;;;15.84;67.22;100837.44;4967379;28;20027;-72
2021/09/30 10:40:21;;;;;;;6.47;1.10;;;;;;;15.76;67.70;100838.03;4968173;28;20023;-73
2021/09/30 10:43:00;;;;;;;4.53;1.02;;;;;;;15.64;68.00;100829.34;4970278;28;20393;-75
2021/09/30 10:45:39;;;;;;;6.15;1.45;;;;;;;15.77;67.60;100845.19;4934402;28;20035;-74
2021/09/30 10:48:24;;;;;;;6.90;2.05;;;;;;;15.74;67.94;100851.31;4967504;28;20038;-71
2021/09/30 10:51:05;;;;;;;6.18;1.60;;;;;;;15.73;68.22;100821.25;4973139;28;20034;-73
2021/09/30 10:53:46;;;;;;;11.27;1.75;;;;;;;15.81;68.29;100818.72;4969862;28;20500;-72
2021/09/30 10:56:23;;;;;;;6.72;1.90;;;;;;;15.98;68.08;100814.69;4970175;28;20027;-71
2021/09/30 10:58:49;;;;;;;6.93;1.63;;;;;;;16.03;68.04;100817.38;4976738;28;20488;-71
2021/09/30 11:01:15;;;;;;;7.05;1.85;;;;;;;16.11;67.35;100811.22;4978672;28;20027;-73
2021/09/30 11:03:57;;;;;;;10.05;2.78;;;;;;;16.14;67.13;100812.56;4967896;28;20040;-73
2021/09/30 11:06:30;;;;;;;14.23;2.00;;;;;;;15.99;67.73;100821.81;4970234;28;20030;-72
2021/09/30 11:09:14;;;;;;;8.60;2.13;;;;;;;16.04;68.10;100830.06;4966126;28;20566;-72
2021/09/30 11:11:41;;;;;;;10.70;1.45;;;;;;;15.86;69.18;100831.63;4981767;28;20473;-75
2021/09/30 11:14:07;;;;;;;15.43;2.05;;;;;;;15.77;69.34;100834.16;4970092;28;20027;-73
2021/09/30 11:16:42;;;;;;;8.23;2.25;;;;;;;15.64;69.73;100813.63;4968031;28;20030;-74
2021/09/30 11:19:43;;;;;;;9.68;2.72;;;;;;;15.54;69.93;100809.00;4962321;28;20400;-71
2021/09/30 11:22:11;;;;;;;11.75;2.35;;;;;;;15.57;69.95;100813.13;4921873;28;20101;-71
2021/09/30 11:24:41;;;;;;;8.80;2.20;;;;;;;15.53;70.15;100812.88;4967148;28;20377;-73
2021/09/30 11:27:09;;;;;;;8.02;2.65;;;;;;;15.50;69.78;100802.44;4976886;28;21290;-77
2021/09/30 11:29:36;;;;;;;16.38;1.65;;;;;;;15.60;69.35;100803.47;4971731;28;20034;-76
2021/09/30 11:32:02;;;;;;;8.65;2.00;;;;;;;15.65;69.33;100804.25;4972761;28;20047;-76
2021/09/30 11:34:35;;;;;;;10.85;1.73;;;;;;;15.66;69.07;100794.03;4976356;28;20114;-77
2021/09/30 11:37:18;;;;;;;6.63;2.72;;;;;;;15.69;69.14;100798.94;4974772;28;20046;-76
2021/09/30 11:39:48;;;;;;;10.93;3.72;;;;;;;15.73;69.22;100790.94;4969261;28;20027;-77
2021/09/30 11:42:15;;;;;;;21.60;3.88;;;;;;;15.78;69.20;100785.34;4970254;28;20033;-76
2021/09/30 11:45:01;;;;;;;8.05;3.13;;;;;;;15.77;69.17;100812.13;4972375;28;20021;-77
2021/09/30 11:47:36;;;;;;;20.13;1.95;;;;;;;15.75;69.27;100783.19;4969150;28;20034;-77
2021/09/30 11:50:11;;;;;;;18.00;2.00;;;;;;;15.83;69.91;100777.06;4983666;28;20041;-75
2021/09/30 11:52:40;;;;;;;13.27;1.70;;;;;;;16.04;69.22;100774.88;4993908;28;20046;-75
2021/09/30 11:55:21;;;;;;;17.17;1.75;;;;;;;16.08;70.07;100814.56;4980121;28;20035;-77
2021/09/30 11:57:54;;;;;;;4.22;0.90;;;;;;;16.18;71.24;100762.03;4970056;28;20535;-75
2021/09/30 12:00:32;;;;;;;9.70;1.42;;;;;;;16.23;70.24;100741.81;4987130;28;20090;-76
2021/09/30 12:03:03;;;;;;;6.70;1.30;;;;;;;16.28;70.21;100743.69;4974900;28;20030;-76
2021/09/30 12:05:49;;;;;;;;;;;;;;;;;;;;;
2021/09/30 12:08:15;;;;;;;6.65;1.70;;;;;;;16.23;70.54;100748.13;4967054;28;20041;-77
2021/09/30 12:10:41;;;;;;;9.27;1.80;;;;;;;16.20;70.83;100734.94;4969641;28;20031;-77
2021/09/30 12:13:20;;;;;;;16.60;2.35;;;;;;;16.17;73.09;100721.75;4971172;28;20038;-75
2021/09/30 12:15:47;;;;;;;14.85;1.70;;;;;;;16.00;74.30;100718.66;4969773;28;20031;-76
2021/09/30 12:18:36;;;;;;;17.08;2.08;;;;;;;15.76;75.24;100727.75;4973646;28;20030;-77
2021/09/30 12:21:11;;;;;;;10.35;1.70;;;;;;;15.60;75.82;100731.78;4935709;29;20100;-77
2021/09/30 12:23:39;;;;;;;4.40;1.58;;;;;;;15.63;75.99;100707.22;4970670;28;20089;-77
2021/09/30 12:26:09;;;;;;;9.48;1.23;;;;;;;15.56;75.57;100711.44;4953024;28;20498;-78
2021/09/30 12:28:38;;;;;;;13.32;2.00;;;;;;;15.42;76.15;100697.53;4955174;28;20170;-78
2021/09/30 12:31:05;;;;;;;15.13;1.70;;;;;;;15.52;76.25;100684.47;4965108;28;20600;-76
2021/09/30 12:33:31;;;;;;;11.27;2.17;;;;;;;15.60;75.83;100704.22;4974155;28;20031;-74
2021/09/30 12:36:03;;;;;;;10.73;1.65;;;;;;;15.57;75.31;100713.09;4968897;28;20039;-74
2021/09/30 12:48:51;;;;;;;7.05;1.35;;;;;;;15.33;77.10;100680.81;4968128;28;20030;-74
2021/09/30 12:51:22;;;;;;;8.93;1.20;;;;;;;15.40;77.08;100659.25;4969095;28;20481;-74
2021/09/30 12:53:53;;;;;;;8.80;2.40;;;;;;;15.44;76.73;100667.75;4969810;28;20137;-74
2021/09/30 12:56:27;;;;;;;9.32;2.20;;;;;;;15.60;76.89;100668.41;4974162;28;20153;-73
2021/09/30 12:58:53;;;;;;;16.00;1.95;;;;;;;15.59;77.02;100672.25;4974223;28;20119;-75
2021/09/30 13:01:35;;;;;;;10.10;1.55;;;;;;;15.68;76.98;100662.22;4973230;28;20043;-74
2021/09/30 13:04:28;;;;;;;6.22;1.02;;;;;;;15.74;76.48;100665.72;4977495;28;20110;-75
2021/09/30 13:06:56;;;;;;;8.23;1.88;;;;;;;15.65;76.58;100713.28;4966956;28;20022;-73
2021/09/30 13:09:29;;;;;;;7.35;1.73;;;;;;;15.57;76.79;100694.59;4979516;28;20382;-75
2021/09/30 13:11:58;;;;;;;14.20;2.15;;;;;;;15.45;76.79;100658.34;4972272;28;20035;-74
2021/09/30 13:14:27;;;;;;;8.25;1.50;;;;;;;15.47;76.96;100686.47;4971229;28;20037;-75
2021/09/30 13:17:13;;;;;;;5.40;1.42;;;;;;;15.47;77.27;100648.69;4971999;28;20037;-75
2021/09/30 13:19:52;;;;;;;6.22;2.40;;;;;;;15.44;77.53;100660.28;4971790;28;20077;-74
2021/09/30 13:22:38;;;;;;;11.82;2.60;;;;;;;15.41;77.41;100658.13;4975787;28;20038;-73
2021/09/30 13:25:11;;;;;;;12.60;1.77;;;;;;;15.46;77.15;100641.56;4978513;28;20031;-73
2021/09/30 13:27:40;;;;;;;14.43;1.90;;;;;;;15.47;76.85;100640.41;4981466;28;20109;-74
2021/09/30 13:30:08;;;;;;;10.90;1.77;;;;;;;15.61;76.20;100621.25;4978288;28;20459;-75
2021/09/30 13:32:34;;;;;;;13.50;2.05;;;;;;;15.68;75.53;100620.88;4989332;28;20134;-75
2021/09/30 13:35:00;;;;;;;9.43;1.48;;;;;;;15.69;75.66;100625.28;4977640;28;20031;-75
2021/09/30 13:37:27;;;;;;;13.32;2.28;;;;;;;15.69;75.35;100611.50;4991140;28;20135;-72
2021/09/30 13:39:56;;;;;;;12.85;1.85;;;;;;;15.64;74.99;100604.13;4991552;28;20118;-74
2021/09/30 13:42:26;;;;;;;6.63;1.85;;;;;;;15.77;74.68;100608.09;4988902;28;20019;-73
2021/09/30 13:44:51;;;;;;;11.52;1.30;;;;;;;15.81;74.36;100608.31;4985553;28;20065;-76
2021/09/30 13:47:17;;;;;;;15.30;1.55;;;;;;;15.98;74.01;100602.31;4987646;28;20011;-74
2021/09/30 13:49:42;;;;;;;16.83;1.80;;;;;;;15.98;73.83;100594.03;4990871;28;20121;-75
2021/09/30 13:52:08;;;;;;;9.35;1.75;;;;;;;16.06;73.83;100582.31;4988655;28;20023;-73
2021/09/30 13:54:34;;;;;;;10.40;1.88;;;;;;;16.00;74.63;100578.00;4992567;28;20058;-74
2021/09/30 13:56:59;;;;;;;7.18;1.77;;;;;;;15.99;75.66;100565.31;4989610;28;20112;-76
2021/09/30 13:59:24;;;;;;;12.65;2.55;;;;;;;15.90;76.68;100573.44;4991298;28;20094;-74
2021/09/30 14:01:51;;;;;;;12.32;2.85;;;;;;;15.74;78.43;100572.84;4990941;28;20022;-74
2021/09/30 14:04:17;;;;;;;15.93;2.00;;;;;;;15.47;79.35;100574.28;4971866;28;20117;-74
2021/09/30 14:06:42;;;;;;;8.85;2.10;;;;;;;15.38;80.50;100589.84;4967397;28;20031;-74
2021/09/30 14:09:07;;;;;;;12.60;2.40;;;;;;;15.28;80.77;100578.94;4994367;28;20038;-74
2021/09/30 14:11:33;;;;;;;15.30;2.30;;;;;;;15.29;80.66;100577.84;4983677;28;20031;-73
2021/09/30 14:13:58;;;;;;;20.45;1.85;;;;;;;15.27;79.85;100593.81;4987695;28;20057;-76
2021/09/30 14:16:25;;;;;;;6.13;1.20;;;;;;;15.30;79.76;100576.69;4982965;28;20059;-72
2021/09/30 14:18:51;;;;;;;13.55;2.50;;;;;;;15.45;79.15;100551.72;4982855;28;20092;-73
2021/09/30 14:21:17;;;;;;;13.20;1.80;;;;;;;15.48;79.08;100556.63;4969377;28;20429;-75
2021/09/30 14:23:44;;;;;;;11.52;2.20;;;;;;;15.47;79.37;100554.19;4973470;28;20106;-74
2021/09/30 14:26:09;;;;;;;24.30;2.28;;;;;;;15.52;79.60;100552.19;4966070;28;20050;-76
2021/09/30 14:28:35;;;;;;;26.58;3.78;;;;;;;15.51;79.57;100550.53;4972514;28;20026;-77
2021/09/30 14:31:01;;;;;;;16.83;2.00;;;;;;;15.38;80.34;100547.69;4969071;28;20050;-70
2021/09/30 14:33:30;;;;;;;12.23;1.95;;;;;;;15.40;80.89;100542.69;4969914;28;20069;-70
2021/09/30 14:35:55;;;;;;;10.98;1.90;;;;;;;15.40;81.30;100529.72;4964558;28;20085;-69
2021/09/30 14:38:22;;;;;;;12.07;2.00;;;;;;;15.34;81.95;100542.75;4967027;28;20043;-71
2021/09/30 14:40:50;;;;;;;16.45;2.20;;;;;;;15.38;82.55;100551.25;4961470;28;20093;-72
2021/09/30 14:43:21;;;;;;;15.80;2.63;;;;;;;15.34;83.02;100539.19;4965527;28;20038;-71
2021/09/30 14:45:48;;;;;;;11.73;1.75;;;;;;;15.33;83.38;100530.09;4972237;28;20046;-71
2021/09/30 14:48:13;;;;;;;21.02;1.92;;;;;;;15.30;84.15;100524.34;4970332;28;20057;-72
2021/09/30 14:50:40;;;;;;;6.30;1.58;;;;;;;15.30;84.26;100524.34;4979106;28;20109;-72
2021/09/30 14:53:06;;;;;;;12.65;2.75;;;;;;;15.26;84.65;100515.88;4950888;28;20038;-70
2021/09/30 14:55:31;;;;;;;11.15;1.60;;;;;;;15.25;84.32;100511.47;4969194;28;20393;-71
2021/09/30 14:57:57;;;;;;;15.25;1.70;;;;;;;15.14;85.03;100524.56;4968480;28;20476;-72
2021/09/30 15:00:22;;;;;;;5.28;1.25;;;;;;;15.09;85.34;100537.56;4966215;28;20113;-73
2021/09/30 15:02:48;;;;;;;10.07;1.80;;;;;;;15.01;85.32;100509.56;4957876;28;20039;-73
2021/09/30 15:05:13;;;;;;;12.70;1.92;;;;;;;14.96;85.82;100497.78;4967512;28;20018;-73
2021/09/30 15:07:39;;;;;;;20.95;1.77;;;;;;;14.90;85.94;100512.75;4947163;28;20030;-74